createdAt,value
2017-11-17T00:00:18.717Z,18.60
2017-11-17T00:02:47.103Z,18.61
2017-11-17T00:05:15.416Z,18.62
2017-11-17T00:07:43.694Z,18.62
2017-11-17T00:10:12.780Z,18.62
2017-11-17T00:12:41.222Z,18.63
2017-11-17T00:15:10.125Z,18.63
2017-11-17T00:17:38.396Z,18.62
2017-11-17T00:20:06.744Z,18.62
2017-11-17T00:22:35.071Z,18.62
2017-11-17T00:25:03.449Z,18.57
2017-11-17T00:27:31.991Z,18.63
2017-11-17T00:30:00.237Z,18.63
2017-11-17T00:32:28.556Z,18.63
2017-11-17T00:34:56.812Z,18.65
2017-11-17T00:37:25.185Z,18.65
2017-11-17T00:39:53.466Z,18.65
2017-11-17T00:42:21.953Z,18.66
2017-11-17T00:44:50.296Z,18.66
2017-11-17T00:47:18.628Z,18.67
2017-11-17T00:49:46.936Z,18.68
2017-11-17T00:52:15.308Z,18.69
2017-11-17T00:54:43.717Z,18.69
2017-11-17T00:57:12.144Z,18.69
2017-11-17T00:59:40.760Z,18.70
2017-11-17T01:02:09.081Z,18.70
2017-11-17T01:04:37.429Z,18.70
2017-11-17T01:07:05.756Z,18.71
2017-11-17T01:09:34.046Z,18.72
2017-11-17T01:12:02.451Z,18.72
2017-11-17T01:14:30.794Z,18.73
2017-11-17T01:16:59.256Z,18.73
2017-11-17T01:19:27.676Z,18.73
2017-11-17T01:21:55.985Z,18.73
2017-11-17T01:24:24.454Z,18.75
2017-11-17T01:26:52.977Z,18.74
2017-11-17T01:29:21.368Z,18.74
2017-11-17T01:31:49.729Z,18.76
2017-11-17T01:34:18.574Z,18.76
2017-11-17T01:36:46.886Z,18.76
2017-11-17T01:39:15.359Z,18.76
2017-11-17T01:41:43.841Z,18.77
2017-11-17T01:44:12.282Z,18.77
2017-11-17T01:46:40.588Z,18.77
2017-11-17T01:49:09.045Z,18.79
2017-11-17T01:51:37.358Z,18.79
2017-11-17T01:54:05.720Z,18.78
2017-11-17T01:56:34.113Z,18.79
2017-11-17T01:59:02.396Z,18.79
2017-11-17T02:01:30.705Z,18.79
2017-11-17T02:03:58.993Z,18.79
2017-11-17T02:06:27.445Z,18.79
2017-11-17T02:08:55.743Z,18.79
2017-11-17T02:11:24.052Z,18.80
2017-11-17T02:13:52.332Z,18.80
2017-11-17T02:16:20.633Z,18.80
2017-11-17T02:18:48.955Z,18.81
2017-11-17T02:21:17.448Z,18.81
2017-11-17T02:23:46.072Z,18.81
2017-11-17T02:26:14.387Z,18.80
2017-11-17T02:28:42.685Z,18.81
2017-11-17T02:31:10.993Z,18.81
2017-11-17T02:33:39.338Z,18.81
2017-11-17T02:36:07.728Z,18.82
2017-11-17T02:38:36.218Z,18.82
2017-11-17T02:41:04.632Z,18.82
2017-11-17T02:43:33.025Z,18.82
2017-11-17T02:46:01.509Z,18.83
2017-11-17T02:48:29.837Z,18.83
2017-11-17T02:50:58.281Z,18.83
2017-11-17T02:53:26.549Z,18.83
2017-11-17T02:55:54.844Z,18.84
2017-11-17T02:58:23.138Z,18.83
2017-11-17T03:00:51.494Z,18.84
2017-11-17T03:03:19.859Z,18.84
2017-11-17T03:05:48.325Z,18.85
2017-11-17T03:08:16.754Z,18.85
2017-11-17T03:10:45.261Z,18.85
2017-11-17T03:13:13.737Z,18.85
2017-11-17T03:15:42.037Z,18.85
2017-11-17T03:18:10.337Z,18.86
2017-11-17T03:20:38.807Z,18.86
2017-11-17T03:23:07.448Z,18.86
2017-11-17T03:25:35.948Z,18.87
2017-11-17T03:28:04.241Z,18.86
2017-11-17T03:30:32.732Z,18.87
2017-11-17T03:33:01.133Z,18.87
2017-11-17T03:35:29.494Z,18.86
2017-11-17T03:37:57.834Z,18.87
2017-11-17T03:40:26.204Z,18.88
2017-11-17T03:42:54.494Z,18.88
2017-11-17T03:45:22.885Z,18.88
2017-11-17T03:47:51.217Z,18.89
2017-11-17T03:50:19.730Z,18.90
2017-11-17T03:52:48.353Z,18.89
2017-11-17T03:55:16.722Z,18.90
2017-11-17T03:57:45.021Z,18.90
2017-11-17T04:00:13.523Z,18.90
2017-11-17T04:02:41.840Z,18.91
2017-11-17T04:05:10.169Z,18.90
2017-11-17T04:07:38.844Z,18.90
2017-11-17T04:10:07.181Z,18.90
2017-11-17T04:12:35.505Z,18.91
2017-11-17T04:15:03.925Z,18.91
2017-11-17T04:17:32.313Z,18.91
2017-11-17T04:20:00.720Z,18.91
2017-11-17T04:22:29.211Z,18.91
2017-11-17T04:24:57.529Z,18.91
2017-11-17T04:27:25.984Z,18.91
2017-11-17T04:29:54.587Z,18.91
2017-11-17T04:32:22.990Z,18.91
2017-11-17T04:34:51.446Z,18.92
2017-11-17T04:37:19.843Z,18.91
2017-11-17T04:39:48.296Z,18.92
2017-11-17T04:42:16.800Z,18.92
2017-11-17T04:44:45.094Z,18.91
2017-11-17T04:47:13.818Z,18.92
2017-11-17T04:49:43.321Z,18.92
2017-11-17T04:52:11.731Z,18.92
2017-11-17T04:54:40.189Z,18.92
2017-11-17T04:57:08.598Z,18.92
2017-11-17T04:59:36.968Z,18.92
2017-11-17T05:02:05.415Z,18.91
2017-11-17T05:04:33.862Z,18.92
2017-11-17T05:07:02.339Z,18.93
2017-11-17T05:09:30.625Z,18.93
2017-11-17T05:11:59.033Z,18.93
2017-11-17T05:14:27.363Z,18.92
2017-11-17T05:16:55.697Z,18.94
2017-11-17T05:19:23.964Z,18.93
2017-11-17T05:21:52.276Z,18.92
2017-11-17T05:24:20.572Z,18.93
2017-11-17T05:26:49.025Z,18.93
2017-11-17T05:29:17.390Z,18.94
2017-11-17T05:31:45.737Z,18.93
2017-11-17T05:34:14.046Z,18.93
2017-11-17T05:36:42.548Z,18.94
2017-11-17T05:39:10.837Z,18.94
2017-11-17T05:41:39.242Z,18.93
2017-11-17T05:44:07.637Z,18.94
2017-11-17T05:46:36.105Z,18.94
2017-11-17T05:49:04.533Z,18.94
2017-11-17T05:51:32.861Z,18.95
2017-11-17T05:54:01.296Z,18.96
2017-11-17T05:56:29.643Z,18.96
2017-11-17T05:58:58.015Z,18.96
2017-11-17T06:01:26.775Z,18.96
2017-11-17T06:03:55.209Z,18.97
2017-11-17T06:06:23.545Z,18.97
2017-11-17T06:08:51.928Z,18.97
2017-11-17T06:11:20.269Z,18.98
2017-11-17T06:13:48.589Z,18.97
2017-11-17T06:16:17.009Z,18.98
2017-11-17T06:18:45.489Z,18.98
2017-11-17T06:21:13.796Z,18.97
2017-11-17T06:23:42.061Z,18.98
2017-11-17T06:26:10.553Z,18.97
2017-11-17T06:28:38.815Z,18.97
2017-11-17T06:31:07.298Z,18.95
2017-11-17T06:33:35.625Z,18.95
2017-11-17T06:36:03.981Z,18.97
2017-11-17T06:38:32.515Z,18.99
2017-11-17T06:41:00.805Z,19.00
2017-11-17T06:43:29.268Z,19.00
2017-11-17T06:45:57.768Z,18.98
2017-11-17T06:48:26.171Z,18.98
2017-11-17T06:50:54.563Z,18.98
2017-11-17T06:53:22.998Z,18.96
2017-11-17T06:55:51.484Z,18.96
2017-11-17T06:58:19.786Z,18.95
2017-11-17T07:00:48.084Z,18.94
2017-11-17T07:03:16.461Z,18.93
2017-11-17T07:05:44.773Z,18.90
2017-11-17T07:08:13.148Z,18.88
2017-11-17T07:10:41.556Z,18.89
2017-11-17T07:13:10.040Z,18.87
2017-11-17T07:15:38.516Z,18.86
2017-11-17T07:18:06.781Z,18.85
2017-11-17T07:20:35.124Z,18.86
2017-11-17T07:23:03.446Z,18.84
2017-11-17T07:25:31.841Z,18.84
2017-11-17T07:28:00.149Z,18.83
2017-11-17T07:30:28.521Z,18.81
2017-11-17T07:32:56.889Z,18.82
2017-11-17T07:35:25.361Z,18.83
2017-11-17T07:37:53.672Z,18.84
2017-11-17T07:40:21.970Z,18.82
2017-11-17T07:42:50.507Z,18.81
2017-11-17T07:45:18.961Z,18.79
2017-11-17T07:47:47.280Z,18.78
2017-11-17T07:50:15.604Z,18.78
2017-11-17T07:52:43.887Z,18.78
2017-11-17T07:55:12.193Z,18.78
2017-11-17T07:57:40.555Z,18.78
2017-11-17T08:00:08.991Z,18.78
2017-11-17T08:02:37.736Z,18.76
2017-11-17T08:05:06.089Z,18.76
2017-11-17T08:07:34.504Z,18.75
2017-11-17T08:10:03.039Z,18.77
2017-11-17T08:12:31.853Z,18.77
2017-11-17T08:15:00.381Z,18.77
2017-11-17T08:17:40.194Z,18.75
2017-11-17T08:20:09.357Z,18.75
2017-11-17T08:22:38.710Z,18.73
2017-11-17T08:25:07.152Z,18.73
2017-11-17T08:27:35.525Z,18.70
2017-11-17T08:30:04.582Z,18.69
2017-11-17T08:32:33.829Z,18.67
2017-11-17T08:35:03.970Z,18.63
2017-11-17T08:37:32.636Z,18.61
2017-11-17T08:40:01.953Z,18.65
2017-11-17T08:42:31.209Z,18.69
2017-11-17T08:45:00.513Z,18.71
2017-11-17T08:47:28.928Z,18.74
2017-11-17T08:49:57.616Z,18.76
2017-11-17T08:52:25.987Z,18.76
2017-11-17T08:54:54.269Z,18.78
2017-11-17T08:57:22.605Z,18.78
2017-11-17T08:59:50.880Z,18.79
2017-11-17T09:02:19.442Z,18.79
2017-11-17T09:04:48.241Z,18.80
2017-11-17T09:07:16.608Z,18.82
2017-11-17T09:09:45.009Z,18.81
2017-11-17T09:12:13.329Z,18.82
2017-11-17T09:14:41.676Z,18.83
2017-11-17T09:17:10.052Z,18.83
2017-11-17T09:19:38.360Z,18.82
2017-11-17T09:22:06.701Z,18.83
2017-11-17T09:24:35.252Z,18.84
2017-11-17T09:27:03.769Z,19.02
2017-11-17T09:29:32.244Z,19.11
2017-11-17T09:32:00.654Z,19.20
2017-11-17T09:34:28.977Z,19.26
2017-11-17T09:36:57.417Z,19.23
2017-11-17T09:39:25.952Z,19.25
2017-11-17T09:41:54.261Z,19.25
2017-11-17T09:44:22.537Z,19.24
2017-11-17T09:46:50.837Z,19.26
2017-11-17T09:49:19.218Z,19.29
2017-11-17T09:51:47.569Z,19.29
2017-11-17T09:54:16.121Z,19.30
2017-11-17T09:56:45.391Z,19.31
2017-11-17T09:59:13.820Z,19.31
2017-11-17T10:01:42.312Z,19.31
2017-11-17T10:04:10.783Z,19.38
2017-11-17T10:06:39.256Z,19.37
2017-11-17T10:09:07.552Z,19.37
2017-11-17T10:11:35.880Z,19.36
2017-11-17T10:14:04.468Z,19.37
2017-11-17T10:16:32.772Z,19.39
2017-11-17T10:19:01.066Z,19.34
2017-11-17T10:21:29.384Z,19.36
2017-11-17T10:23:57.737Z,19.37
2017-11-17T10:26:26.105Z,19.41
2017-11-17T10:28:54.446Z,19.40
2017-11-17T10:31:22.983Z,19.38
2017-11-17T10:33:51.502Z,19.35
2017-11-17T10:36:19.827Z,19.37
2017-11-17T10:38:48.206Z,19.34
2017-11-17T10:41:16.553Z,19.38
2017-11-17T10:43:44.836Z,19.34
2017-11-17T10:46:13.152Z,19.35
2017-11-17T10:48:41.562Z,19.32
2017-11-17T10:51:09.860Z,19.32
2017-11-17T10:53:38.156Z,19.33
2017-11-17T10:56:06.661Z,19.36
2017-11-17T10:58:35.477Z,19.32
2017-11-17T11:01:03.798Z,19.34
2017-11-17T11:03:32.538Z,19.33
2017-11-17T11:06:03.573Z,19.36
2017-11-17T11:08:33.252Z,19.37
2017-11-17T11:11:07.093Z,19.36
2017-11-17T11:13:36.565Z,19.38
2017-11-17T11:16:04.900Z,19.40
2017-11-17T11:18:33.206Z,19.37
2017-11-17T11:21:01.516Z,19.38
2017-11-17T11:23:29.852Z,19.42
2017-11-17T11:25:58.429Z,19.40
2017-11-17T11:28:26.961Z,19.40
2017-11-17T11:30:55.320Z,19.39
2017-11-17T11:33:24.384Z,19.42
2017-11-17T11:35:52.942Z,19.41
2017-11-17T11:38:21.233Z,19.48
2017-11-17T11:40:49.708Z,19.50
2017-11-17T11:43:18.098Z,19.48
2017-11-17T11:45:46.460Z,19.50
2017-11-17T11:48:14.925Z,19.54
2017-11-17T11:50:43.217Z,19.50
2017-11-17T11:53:11.493Z,19.56
2017-11-17T11:55:39.985Z,19.59
2017-11-17T11:58:08.424Z,19.60
2017-11-17T12:00:36.757Z,19.62
2017-11-17T12:03:05.056Z,19.61
2017-11-17T12:05:33.349Z,19.58
2017-11-17T12:08:01.613Z,19.59
2017-11-17T12:10:29.928Z,19.60
2017-11-17T12:12:58.301Z,19.59
2017-11-17T12:15:26.625Z,19.60
2017-11-17T12:17:54.939Z,19.59
2017-11-17T12:20:23.253Z,19.59
2017-11-17T12:22:51.641Z,19.60
2017-11-17T12:25:19.975Z,19.59
2017-11-17T12:27:48.284Z,19.59
2017-11-17T12:30:16.602Z,19.60
2017-11-17T12:32:44.910Z,19.58
2017-11-17T12:35:13.208Z,19.58
2017-11-17T12:37:41.497Z,19.61
2017-11-17T12:40:10.011Z,19.61
2017-11-17T12:42:38.429Z,19.60
2017-11-17T12:45:06.728Z,19.61
2017-11-17T12:47:34.997Z,19.60
2017-11-17T12:50:03.526Z,19.59
2017-11-17T12:52:31.823Z,19.60
2017-11-17T12:55:00.137Z,19.60
2017-11-17T12:57:28.529Z,19.62
2017-11-17T12:59:56.830Z,19.61
2017-11-17T13:02:25.231Z,19.61
2017-11-17T13:04:53.499Z,19.64
2017-11-17T13:07:21.842Z,19.68
2017-11-17T13:09:51.097Z,19.70
2017-11-17T13:12:19.435Z,19.72
2017-11-17T13:14:47.707Z,19.73
2017-11-17T13:17:16.038Z,20.01
2017-11-17T13:19:44.309Z,20.59
2017-11-17T13:22:12.654Z,22.22
2017-11-17T13:24:40.947Z,21.57
2017-11-17T13:27:09.634Z,23.11
2017-11-17T13:29:37.921Z,21.72
2017-11-17T13:32:06.389Z,21.16
2017-11-17T13:34:34.703Z,21.02
2017-11-17T13:37:03.052Z,20.93
2017-11-17T13:39:31.398Z,20.40
2017-11-17T13:41:59.773Z,20.18
2017-11-17T13:44:28.044Z,20.28
2017-11-17T13:46:56.396Z,20.13
2017-11-17T13:49:24.688Z,20.10
2017-11-17T13:51:53.033Z,20.20
2017-11-17T13:54:21.576Z,20.33
2017-11-17T13:56:49.922Z,20.02
2017-11-17T13:59:18.188Z,19.94
2017-11-17T14:01:46.532Z,19.91
2017-11-17T14:04:14.788Z,19.85
2017-11-17T14:06:43.120Z,19.83
2017-11-17T14:09:11.398Z,19.85
2017-11-17T14:11:39.720Z,19.83
2017-11-17T14:14:08.031Z,19.79
2017-11-17T14:16:36.428Z,19.77
2017-11-17T14:19:04.697Z,19.77
2017-11-17T14:21:33.094Z,19.75
2017-11-17T14:24:01.444Z,19.70
2017-11-17T14:26:29.889Z,19.66
2017-11-17T14:28:58.180Z,19.70
2017-11-17T14:31:26.527Z,19.70
2017-11-17T14:33:54.942Z,19.66
2017-11-17T14:36:23.265Z,19.64
2017-11-17T14:38:51.724Z,19.62
2017-11-17T14:41:20.077Z,19.61
2017-11-17T14:43:48.389Z,19.61
2017-11-17T14:46:16.735Z,19.62
2017-11-17T14:48:45.034Z,19.63
2017-11-17T14:51:13.536Z,19.62
2017-11-17T14:53:41.829Z,19.59
2017-11-17T14:56:10.180Z,19.63
2017-11-17T14:58:38.480Z,19.60
2017-11-17T15:01:07.086Z,19.58
2017-11-17T15:03:35.352Z,19.56
2017-11-17T15:06:04.065Z,19.56
2017-11-17T15:08:32.345Z,19.57
2017-11-17T15:11:00.653Z,19.56
2017-11-17T15:13:29.005Z,19.56
2017-11-17T15:15:57.330Z,19.53
2017-11-17T15:18:25.756Z,19.54
2017-11-17T15:20:54.072Z,19.55
2017-11-17T15:23:22.357Z,19.54
2017-11-17T15:25:50.852Z,19.53
2017-11-17T15:28:19.157Z,19.53
2017-11-17T15:30:47.465Z,19.49
2017-11-17T15:33:15.772Z,19.48
2017-11-17T15:35:44.074Z,19.49
2017-11-17T15:38:12.391Z,19.49
2017-11-17T15:40:40.718Z,19.49
2017-11-17T15:43:09.036Z,19.46
2017-11-17T15:45:37.453Z,19.46
2017-11-17T15:48:06.128Z,19.43
2017-11-17T15:50:34.461Z,19.45
2017-11-17T15:53:02.776Z,19.42
2017-11-17T15:55:31.108Z,19.39
2017-11-17T15:57:59.413Z,19.38
2017-11-17T16:00:27.748Z,19.42
2017-11-17T16:02:56.047Z,19.42
2017-11-17T16:05:24.344Z,19.39
2017-11-17T16:07:52.623Z,19.36
2017-11-17T16:10:20.920Z,19.39
2017-11-17T16:12:49.259Z,19.39
2017-11-17T16:15:17.590Z,19.37
2017-11-17T16:17:45.891Z,19.38
2017-11-17T16:20:14.219Z,19.36
2017-11-17T16:22:42.500Z,19.34
2017-11-17T16:25:10.896Z,19.33
2017-11-17T16:27:39.198Z,19.35
2017-11-17T16:30:07.562Z,19.33
2017-11-17T16:32:35.977Z,19.30
2017-11-17T16:35:04.431Z,19.30
2017-11-17T16:37:32.735Z,19.31
2017-11-17T16:40:01.140Z,19.30
2017-11-17T16:42:29.641Z,19.30
2017-11-17T16:44:58.285Z,19.31
2017-11-17T16:47:26.686Z,19.28
2017-11-17T16:49:55.376Z,19.30
2017-11-17T16:52:23.681Z,19.29
2017-11-17T16:54:52.233Z,19.29
2017-11-17T16:57:20.720Z,19.29
2017-11-17T16:59:49.184Z,19.26
2017-11-17T17:02:17.533Z,19.30
2017-11-17T17:04:45.970Z,19.32
2017-11-17T17:07:14.309Z,19.30
2017-11-17T17:09:42.584Z,19.29
2017-11-17T17:12:10.993Z,19.33
2017-11-17T17:14:39.477Z,19.32
2017-11-17T17:17:07.843Z,19.31
2017-11-17T17:19:36.195Z,19.28
2017-11-17T17:22:04.509Z,19.26
2017-11-17T17:24:32.781Z,19.29
2017-11-17T17:27:01.092Z,19.25
2017-11-17T17:29:29.448Z,19.24
2017-11-17T17:31:57.748Z,19.27
2017-11-17T17:34:26.014Z,19.24
2017-11-17T17:36:54.369Z,19.22
2017-11-17T17:39:22.717Z,19.23
2017-11-17T17:41:51.368Z,19.22
2017-11-17T17:44:19.632Z,19.25
2017-11-17T17:46:47.937Z,19.27
2017-11-17T17:49:16.808Z,19.28
2017-11-17T17:51:45.196Z,19.25
2017-11-17T17:54:13.508Z,19.24
2017-11-17T17:56:41.920Z,19.23
2017-11-17T17:59:10.256Z,19.23
2017-11-17T18:01:38.769Z,19.22
2017-11-17T18:04:07.417Z,19.22
2017-11-17T18:06:35.722Z,19.23
2017-11-17T18:09:04.289Z,19.22
2017-11-17T18:11:34.477Z,19.22
2017-11-17T18:14:06.920Z,19.21
2017-11-17T18:16:35.532Z,19.20
2017-11-17T18:19:03.940Z,19.19
2017-11-17T18:21:32.350Z,19.21
2017-11-17T18:24:00.682Z,19.19
2017-11-17T18:26:29.594Z,19.19
2017-11-17T18:28:58.291Z,19.19
2017-11-17T18:31:27.105Z,19.19
2017-11-17T18:33:55.437Z,19.20
2017-11-17T18:36:23.762Z,19.19
2017-11-17T18:38:52.123Z,19.20
2017-11-17T18:41:20.429Z,19.20
2017-11-17T18:43:48.800Z,19.19
2017-11-17T18:46:17.129Z,19.20
2017-11-17T18:48:45.397Z,19.19
2017-11-17T18:51:13.738Z,19.19
2017-11-17T18:53:42.081Z,19.20
2017-11-17T18:56:10.408Z,19.20
2017-11-17T18:58:38.842Z,19.17
2017-11-17T19:01:07.143Z,19.20
2017-11-17T19:03:35.454Z,19.19
2017-11-17T19:06:03.779Z,19.15
2017-11-17T19:08:32.100Z,19.20
2017-11-17T19:11:00.453Z,19.20
2017-11-17T19:13:28.778Z,19.18
2017-11-17T19:15:57.097Z,19.22
2017-11-17T19:18:25.408Z,19.23
2017-11-17T19:20:53.767Z,19.24
2017-11-17T19:23:22.086Z,19.22
2017-11-17T19:25:50.403Z,19.23
2017-11-17T19:28:20.282Z,19.24
2017-11-17T19:30:48.582Z,19.24
2017-11-17T19:33:16.882Z,19.25
2017-11-17T19:35:45.226Z,19.24
2017-11-17T19:38:14.093Z,19.23
2017-11-17T19:40:42.468Z,19.24
2017-11-17T19:43:11.071Z,19.23
2017-11-17T19:45:39.408Z,19.23
2017-11-17T19:48:07.816Z,19.23
2017-11-17T19:50:37.684Z,19.21
2017-11-17T19:53:06.840Z,19.22
2017-11-17T19:55:37.364Z,19.21
2017-11-17T19:58:06.061Z,19.21
2017-11-17T20:00:34.557Z,19.20
2017-11-17T20:03:03.050Z,19.20
2017-11-17T20:05:31.650Z,19.19
2017-11-17T20:08:00.030Z,19.17
2017-11-17T20:10:28.684Z,19.18
2017-11-17T20:12:57.511Z,19.18
2017-11-17T20:15:26.261Z,19.17
2017-11-17T20:17:54.624Z,19.18
2017-11-17T20:20:22.957Z,19.18
2017-11-17T20:22:51.915Z,19.19
2017-11-17T20:25:20.321Z,19.18
2017-11-17T20:27:48.660Z,19.17
2017-11-17T20:30:17.169Z,19.18
2017-11-17T20:32:45.825Z,19.18
2017-11-17T20:35:14.702Z,19.18
2017-11-17T20:37:43.237Z,19.17
2017-11-17T20:40:11.580Z,19.17
2017-11-17T20:42:40.521Z,19.14
2017-11-17T20:45:09.338Z,19.13
2017-11-17T20:47:37.633Z,19.15
2017-11-17T20:50:06.462Z,19.16
2017-11-17T20:52:34.817Z,19.17
2017-11-17T20:55:04.248Z,19.17
2017-11-17T20:57:33.818Z,19.15
2017-11-17T21:00:04.203Z,19.12
2017-11-17T21:02:35.178Z,19.13
2017-11-17T21:05:05.697Z,19.14
2017-11-17T21:07:35.293Z,19.15
2017-11-17T21:10:05.500Z,19.14
2017-11-17T21:12:33.846Z,19.15
2017-11-17T21:15:02.914Z,19.15
2017-11-17T21:17:31.465Z,19.13
2017-11-17T21:20:00.111Z,19.15
2017-11-17T21:22:28.475Z,19.17
2017-11-17T21:24:56.998Z,19.15
2017-11-17T21:27:25.377Z,19.15
2017-11-17T21:29:53.785Z,19.16
2017-11-17T21:32:22.210Z,19.16
2017-11-17T21:34:51.345Z,19.17
2017-11-17T21:37:19.742Z,19.17
2017-11-17T21:39:48.137Z,19.17
2017-11-17T21:42:16.600Z,19.16
2017-11-17T21:44:44.853Z,19.15
2017-11-17T21:47:13.257Z,19.13
2017-11-17T21:49:41.546Z,19.12
2017-11-17T21:52:10.117Z,19.10
2017-11-17T21:54:39.372Z,19.10
2017-11-17T21:57:07.778Z,19.07
2017-11-17T21:59:36.149Z,19.05
2017-11-17T22:02:04.519Z,19.04
2017-11-17T22:04:32.873Z,19.04
2017-11-17T22:07:01.282Z,19.02
2017-11-17T22:09:29.874Z,19.00
2017-11-17T22:11:58.601Z,18.99
2017-11-17T22:14:26.949Z,18.98
2017-11-17T22:16:55.374Z,18.97
2017-11-17T22:19:23.700Z,18.95
2017-11-17T22:21:52.170Z,18.98
2017-11-17T22:24:20.551Z,18.97
2017-11-17T22:26:48.902Z,18.96
2017-11-17T22:29:17.309Z,18.94
2017-11-17T22:31:45.814Z,18.92
2017-11-17T22:34:14.164Z,18.92
2017-11-17T22:36:42.492Z,18.92
2017-11-17T22:39:10.818Z,18.91
2017-11-17T22:41:39.217Z,18.90
2017-11-17T22:44:07.578Z,18.84
2017-11-17T22:46:36.057Z,18.81
2017-11-17T22:49:04.441Z,18.84
2017-11-17T22:51:32.762Z,18.85
2017-11-17T22:54:01.304Z,18.86
2017-11-17T22:56:29.682Z,18.87
2017-11-17T22:58:58.148Z,18.87
2017-11-17T23:01:26.523Z,18.88
2017-11-17T23:03:54.964Z,18.86
2017-11-17T23:06:23.320Z,18.84
2017-11-17T23:08:51.670Z,18.84
2017-11-17T23:11:20.099Z,18.84
2017-11-17T23:13:48.457Z,18.84
2017-11-17T23:16:16.812Z,18.82
2017-11-17T23:18:45.091Z,18.82
2017-11-17T23:21:13.396Z,18.81
2017-11-17T23:23:41.834Z,18.81
2017-11-17T23:26:10.232Z,18.80
2017-11-17T23:28:38.553Z,18.77
2017-11-17T23:31:06.952Z,18.80
2017-11-17T23:33:35.245Z,18.77
2017-11-17T23:36:03.672Z,18.74
2017-11-17T23:38:32.009Z,18.73
2017-11-17T23:41:00.426Z,18.75
2017-11-17T23:43:28.744Z,18.75
2017-11-17T23:45:57.206Z,18.76
2017-11-17T23:48:25.696Z,18.75
2017-11-17T23:50:54.029Z,18.74
2017-11-17T23:53:22.411Z,18.71
2017-11-17T23:55:50.892Z,18.72
2017-11-17T23:58:20.125Z,18.71
